createdAt,value
2018-06-17T00:00:41.825Z,21.42
2018-06-17T00:01:41.836Z,21.42
2018-06-17T00:02:41.867Z,21.43
2018-06-17T00:03:41.911Z,21.44
2018-06-17T00:04:41.852Z,21.41
2018-06-17T00:05:41.922Z,21.4
2018-06-17T00:06:41.846Z,21.41
2018-06-17T00:07:41.983Z,21.36
2018-06-17T00:08:41.956Z,21.36
2018-06-17T00:09:41.917Z,21.36
2018-06-17T00:10:41.835Z,21.35
2018-06-17T00:11:41.832Z,21.32
2018-06-17T00:12:41.837Z,21.33
2018-06-17T00:13:41.814Z,21.31
2018-06-17T00:14:41.831Z,21.29
2018-06-17T00:15:41.814Z,21.29
2018-06-17T00:16:41.824Z,21.28
2018-06-17T00:17:41.846Z,21.25
2018-06-17T00:18:41.881Z,21.22
2018-06-17T00:19:41.825Z,21.22
2018-06-17T00:20:41.808Z,21.22
2018-06-17T00:21:41.816Z,21.15
2018-06-17T00:22:41.832Z,21.14
2018-06-17T00:23:41.816Z,21.09
2018-06-17T00:24:41.998Z,21.07
2018-06-17T00:25:41.857Z,20.97
2018-06-17T00:26:41.831Z,20.94
2018-06-17T00:27:41.884Z,20.98
2018-06-17T00:28:41.821Z,20.95
2018-06-17T00:29:41.818Z,20.97
2018-06-17T00:30:41.823Z,20.96
2018-06-17T00:31:41.861Z,20.9
2018-06-17T00:32:41.837Z,20.93
2018-06-17T00:33:41.852Z,20.85
2018-06-17T00:34:41.835Z,20.87
2018-06-17T00:35:41.879Z,20.86
2018-06-17T00:36:41.839Z,20.89
2018-06-17T00:37:41.860Z,20.9
2018-06-17T00:38:41.832Z,20.86
2018-06-17T00:39:42.194Z,20.79
2018-06-17T00:40:41.866Z,20.79
2018-06-17T00:41:41.844Z,20.78
2018-06-17T00:42:41.870Z,20.82
2018-06-17T00:43:41.875Z,20.81
2018-06-17T00:44:41.874Z,20.83
2018-06-17T00:45:41.855Z,20.84
2018-06-17T00:46:41.872Z,20.84
2018-06-17T00:47:41.882Z,20.79
2018-06-17T00:48:41.883Z,20.85
2018-06-17T00:49:41.855Z,20.87
2018-06-17T00:50:42.065Z,20.9
2018-06-17T00:51:41.874Z,20.88
2018-06-17T00:52:41.886Z,20.88
2018-06-17T00:53:42.390Z,20.9
2018-06-17T00:54:41.873Z,20.92
2018-06-17T00:55:41.891Z,20.93
2018-06-17T00:56:41.974Z,20.96
2018-06-17T00:57:41.901Z,20.97
2018-06-17T00:58:41.927Z,20.98
2018-06-17T00:59:41.947Z,21.01
2018-06-17T01:00:42.122Z,20.99
2018-06-17T01:01:41.905Z,20.95
2018-06-17T01:02:42.438Z,20.95
2018-06-17T01:03:42.354Z,20.92
2018-06-17T01:04:42.645Z,20.89
2018-06-17T01:05:42.836Z,20.9
2018-06-17T01:06:42.629Z,20.92
2018-06-17T01:07:42.618Z,20.95
2018-06-17T01:08:42.670Z,20.93
2018-06-17T01:09:42.634Z,20.96
2018-06-17T01:10:42.651Z,20.97
2018-06-17T01:11:42.620Z,20.95
2018-06-17T01:12:42.662Z,20.97
2018-06-17T01:13:42.898Z,20.95
2018-06-17T01:14:42.678Z,20.92
2018-06-17T01:15:42.627Z,20.9
2018-06-17T01:16:42.655Z,20.92
2018-06-17T01:17:42.650Z,20.86
2018-06-17T01:18:42.605Z,20.83
2018-06-17T01:19:42.710Z,20.85
2018-06-17T01:20:42.633Z,20.85
2018-06-17T01:21:42.592Z,20.85
2018-06-17T01:22:42.661Z,20.84
2018-06-17T01:23:42.670Z,20.85
2018-06-17T01:24:42.677Z,20.85
2018-06-17T01:25:42.622Z,20.85
2018-06-17T01:26:42.656Z,20.85
2018-06-17T01:27:42.679Z,20.86
2018-06-17T01:28:42.712Z,20.86
2018-06-17T01:29:42.681Z,20.85
2018-06-17T01:30:42.632Z,20.82
2018-06-17T01:31:42.690Z,20.78
2018-06-17T01:32:42.667Z,20.76
2018-06-17T01:33:42.618Z,20.75
2018-06-17T01:34:42.809Z,20.77
2018-06-17T01:35:42.715Z,20.78
2018-06-17T01:36:42.799Z,20.78
2018-06-17T01:37:42.703Z,20.79
2018-06-17T01:38:42.699Z,20.8
2018-06-17T01:39:42.647Z,20.79
2018-06-17T01:40:42.750Z,20.75
2018-06-17T01:41:42.777Z,20.73
2018-06-17T01:42:43.389Z,20.72
2018-06-17T01:43:42.749Z,20.68
2018-06-17T01:44:42.744Z,20.67
2018-06-17T01:45:42.737Z,20.65
2018-06-17T01:46:42.733Z,20.62
2018-06-17T01:47:42.912Z,20.65
2018-06-17T01:48:42.765Z,20.65
2018-06-17T01:49:42.671Z,20.61
2018-06-17T01:50:43.402Z,20.59
2018-06-17T01:51:42.732Z,20.59
2018-06-17T01:52:42.659Z,20.53
2018-06-17T01:53:42.707Z,20.5
2018-06-17T01:54:42.653Z,20.45
2018-06-17T01:55:42.716Z,20.42
2018-06-17T01:56:42.837Z,20.41
2018-06-17T01:57:42.645Z,20.41
2018-06-17T01:58:42.719Z,20.42
2018-06-17T01:59:42.640Z,20.41
2018-06-17T02:00:42.785Z,20.38
2018-06-17T02:01:42.771Z,20.32
2018-06-17T02:02:42.717Z,20.29
2018-06-17T02:03:42.950Z,20.28
2018-06-17T02:04:41.955Z,20.26
2018-06-17T02:05:41.950Z,20.27
2018-06-17T02:06:41.978Z,20.24
2018-06-17T02:07:42.764Z,20.23
2018-06-17T02:08:41.988Z,20.25
2018-06-17T02:09:42.709Z,20.28
2018-06-17T02:10:41.964Z,20.23
2018-06-17T02:11:41.961Z,20.2
2018-06-17T02:12:41.968Z,20.13
2018-06-17T02:13:41.963Z,20.16
2018-06-17T02:14:41.940Z,20.2
2018-06-17T02:15:41.970Z,20.2
2018-06-17T02:16:42.109Z,20.22
2018-06-17T02:17:42.115Z,20.2
2018-06-17T02:18:41.962Z,20.2
2018-06-17T02:19:42.119Z,20.22
2018-06-17T02:20:42.049Z,20.22
2018-06-17T02:21:41.981Z,20.23
2018-06-17T02:22:42.016Z,20.22
2018-06-17T02:23:42.077Z,20.21
2018-06-17T02:24:42.029Z,20.22
2018-06-17T02:25:42.158Z,20.23
2018-06-17T02:26:41.962Z,20.21
2018-06-17T02:27:41.979Z,20.25
2018-06-17T02:28:41.966Z,20.25
2018-06-17T02:29:42.053Z,20.24
2018-06-17T02:30:42.024Z,20.23
2018-06-17T02:31:41.997Z,20.25
2018-06-17T02:32:42.004Z,20.18
2018-06-17T02:33:41.984Z,20.21
2018-06-17T02:34:41.995Z,20.13
2018-06-17T02:35:41.995Z,20.19
2018-06-17T02:36:42.011Z,20.18
2018-06-17T02:37:42.020Z,20.14
2018-06-17T02:38:42.027Z,20.13
2018-06-17T02:39:42.153Z,20.18
2018-06-17T02:40:42.009Z,20.12
2018-06-17T02:41:41.998Z,20.15
2018-06-17T02:42:42.012Z,20.17
2018-06-17T02:43:42.013Z,20.17
2018-06-17T02:44:42.238Z,20.21
2018-06-17T02:45:42.113Z,20.16
2018-06-17T02:46:42.171Z,20.18
2018-06-17T02:47:42.115Z,20.18
2018-06-17T02:48:42.094Z,20.19
2018-06-17T02:49:42.016Z,20.22
2018-06-17T02:50:42.009Z,20.22
2018-06-17T02:51:42.105Z,20.21
2018-06-17T02:52:42.125Z,20.22
2018-06-17T02:53:42.135Z,20.2
2018-06-17T02:54:42.068Z,20.17
2018-06-17T02:55:42.132Z,20.2
2018-06-17T02:56:42.007Z,20.18
2018-06-17T02:57:42.043Z,20.16
2018-06-17T02:58:42.061Z,20.16
2018-06-17T02:59:42.082Z,20.16
2018-06-17T03:00:42.102Z,20.11
2018-06-17T03:01:42.105Z,20.02
2018-06-17T03:02:42.059Z,20
2018-06-17T03:03:42.240Z,19.94
2018-06-17T03:04:42.158Z,19.94
2018-06-17T03:05:42.051Z,19.93
2018-06-17T03:06:42.117Z,19.96
2018-06-17T03:07:42.101Z,19.97
2018-06-17T03:08:42.131Z,19.91
2018-06-17T03:09:42.029Z,19.87
2018-06-17T03:10:42.048Z,19.85
2018-06-17T03:11:42.115Z,19.82
2018-06-17T03:12:42.071Z,19.77
2018-06-17T03:13:42.114Z,19.73
2018-06-17T03:14:42.146Z,19.64
2018-06-17T03:15:42.214Z,19.69
2018-06-17T03:16:42.199Z,19.72
2018-06-17T03:17:42.204Z,19.7
2018-06-17T03:18:42.137Z,19.73
2018-06-17T03:19:42.040Z,19.73
2018-06-17T03:20:42.060Z,19.71
2018-06-17T03:21:42.093Z,19.73
2018-06-17T03:22:42.060Z,19.75
2018-06-17T03:23:42.059Z,19.77
2018-06-17T03:24:42.438Z,19.77
2018-06-17T03:25:42.081Z,19.76
2018-06-17T03:26:42.159Z,19.76
2018-06-17T03:27:42.132Z,19.77
2018-06-17T03:28:42.082Z,19.78
2018-06-17T03:29:42.195Z,19.81
2018-06-17T03:30:42.268Z,19.81
2018-06-17T03:31:42.088Z,19.82
2018-06-17T03:32:42.075Z,19.76
2018-06-17T03:33:42.148Z,19.77
2018-06-17T03:34:42.059Z,19.79
2018-06-17T03:35:42.105Z,19.79
2018-06-17T03:36:42.114Z,19.81
2018-06-17T03:37:42.048Z,19.82
2018-06-17T03:38:42.088Z,19.79
2018-06-17T03:39:42.055Z,19.83
2018-06-17T03:40:42.070Z,19.83
2018-06-17T03:41:42.071Z,19.83
2018-06-17T03:42:42.085Z,19.85
2018-06-17T03:43:42.060Z,19.82
2018-06-17T03:44:42.066Z,19.82
2018-06-17T03:45:42.073Z,19.84
2018-06-17T03:46:42.113Z,19.83
2018-06-17T03:47:42.067Z,19.81
2018-06-17T03:48:42.071Z,19.78
2018-06-17T03:49:42.079Z,19.7
2018-06-17T03:50:42.057Z,19.72
2018-06-17T03:51:42.077Z,19.64
2018-06-17T03:52:42.067Z,19.66
2018-06-17T03:53:42.086Z,19.56
2018-06-17T03:54:42.065Z,19.51
2018-06-17T03:55:42.235Z,19.53
2018-06-17T03:56:42.121Z,19.47
2018-06-17T03:57:42.084Z,19.47
2018-06-17T03:58:42.166Z,19.43
2018-06-17T03:59:42.257Z,19.35
2018-06-17T04:00:42.127Z,19.41
2018-06-17T04:01:42.105Z,19.42
2018-06-17T04:02:42.322Z,19.39
2018-06-17T04:03:42.143Z,19.42
2018-06-17T04:04:42.243Z,19.42
2018-06-17T04:05:42.191Z,19.4
2018-06-17T04:06:42.149Z,19.29
2018-06-17T04:07:42.153Z,19.3
2018-06-17T04:08:42.083Z,19.27
2018-06-17T04:09:42.115Z,19.28
2018-06-17T04:10:42.200Z,19.19
2018-06-17T04:11:42.334Z,19.18
2018-06-17T04:12:42.677Z,19.21
2018-06-17T04:13:42.110Z,19.18
2018-06-17T04:14:42.308Z,19.21
2018-06-17T04:15:42.181Z,19.13
2018-06-17T04:16:42.136Z,19.1
2018-06-17T04:17:42.092Z,19.01
2018-06-17T04:18:42.123Z,18.98
2018-06-17T04:19:42.100Z,18.95
2018-06-17T04:20:42.090Z,18.85
2018-06-17T04:21:42.125Z,18.86
2018-06-17T04:22:42.125Z,18.79
2018-06-17T04:23:42.102Z,18.62
2018-06-17T04:24:42.137Z,18.64
2018-06-17T04:25:43.279Z,18.66
2018-06-17T04:26:42.152Z,18.64
2018-06-17T04:27:42.192Z,18.65
2018-06-17T04:28:42.107Z,18.62
2018-06-17T04:29:42.118Z,18.58
2018-06-17T04:30:42.119Z,18.56
2018-06-17T04:31:42.116Z,18.51
2018-06-17T04:32:42.272Z,18.55
2018-06-17T04:33:42.161Z,18.52
2018-06-17T04:34:42.122Z,18.57
2018-06-17T04:35:42.140Z,18.6
2018-06-17T04:36:42.121Z,18.56
2018-06-17T04:37:42.154Z,18.51
2018-06-17T04:38:42.354Z,18.52
2018-06-17T04:39:42.126Z,18.5
2018-06-17T04:40:42.114Z,18.52
2018-06-17T04:41:42.119Z,18.45
2018-06-17T04:42:42.313Z,18.46
2018-06-17T04:43:42.173Z,18.52
2018-06-17T04:44:42.182Z,18.43
2018-06-17T04:45:42.230Z,18.42
2018-06-17T04:46:42.436Z,18.48
2018-06-17T04:47:42.196Z,18.47
2018-06-17T04:48:42.158Z,18.51
2018-06-17T04:49:42.131Z,18.46
2018-06-17T04:50:42.156Z,18.5
2018-06-17T04:51:42.171Z,18.45
2018-06-17T04:52:42.144Z,18.41
2018-06-17T04:53:42.140Z,18.44
2018-06-17T04:54:42.126Z,18.44
2018-06-17T04:55:42.116Z,18.48
2018-06-17T04:56:42.141Z,18.5
2018-06-17T04:57:42.167Z,18.54
2018-06-17T04:58:42.171Z,18.52
2018-06-17T04:59:42.187Z,18.5
2018-06-17T05:00:42.140Z,18.52
2018-06-17T05:01:42.144Z,18.52
2018-06-17T05:02:42.144Z,18.54
2018-06-17T05:03:42.150Z,18.53
2018-06-17T05:04:42.151Z,18.56
2018-06-17T05:05:42.180Z,18.54
2018-06-17T05:06:42.162Z,18.6
2018-06-17T05:07:42.169Z,18.6
2018-06-17T05:08:42.181Z,18.62
2018-06-17T05:09:42.240Z,18.64
2018-06-17T05:10:42.189Z,18.66
2018-06-17T05:11:42.310Z,18.7
2018-06-17T05:12:42.398Z,18.69
2018-06-17T05:13:42.220Z,18.72
2018-06-17T05:14:42.302Z,18.74
2018-06-17T05:15:42.300Z,18.75
2018-06-17T05:16:42.262Z,18.77
2018-06-17T05:17:42.284Z,18.77
2018-06-17T05:18:42.290Z,18.79
2018-06-17T05:19:42.213Z,18.83
2018-06-17T05:20:42.172Z,18.82
2018-06-17T05:21:42.193Z,18.85
2018-06-17T05:22:42.211Z,18.88
2018-06-17T05:23:42.233Z,18.82
2018-06-17T05:24:42.189Z,18.86
2018-06-17T05:25:42.207Z,18.89
2018-06-17T05:26:42.244Z,18.88
2018-06-17T05:27:42.219Z,18.9
2018-06-17T05:28:42.320Z,18.93
2018-06-17T05:29:42.265Z,18.91
2018-06-17T05:30:42.237Z,18.96
2018-06-17T05:31:42.203Z,18.96
2018-06-17T05:32:42.198Z,18.99
2018-06-17T05:33:42.525Z,19.01
2018-06-17T05:34:42.210Z,19.01
2018-06-17T05:35:42.245Z,18.99
2018-06-17T05:36:42.209Z,18.99
2018-06-17T05:37:42.216Z,18.93
2018-06-17T05:38:42.188Z,18.93
2018-06-17T05:39:42.302Z,18.94
2018-06-17T05:40:42.222Z,19
2018-06-17T05:41:42.197Z,19.02
2018-06-17T05:42:42.208Z,19.06
2018-06-17T05:43:42.243Z,19.08
2018-06-17T05:44:42.392Z,19.11
2018-06-17T05:45:42.209Z,19.14
2018-06-17T05:46:42.296Z,19.16
2018-06-17T05:47:42.302Z,19.2
2018-06-17T05:48:42.219Z,19.2
2018-06-17T05:49:42.246Z,19.21
2018-06-17T05:50:42.245Z,19.25
2018-06-17T05:51:42.339Z,19.26
2018-06-17T05:52:42.442Z,19.29
2018-06-17T05:53:42.198Z,19.28
2018-06-17T05:54:42.280Z,19.28
2018-06-17T05:55:42.912Z,19.27
2018-06-17T05:56:42.207Z,19.26
2018-06-17T05:57:42.294Z,19.28
2018-06-17T05:58:42.219Z,19.32
2018-06-17T05:59:42.206Z,19.35
2018-06-17T06:00:42.458Z,19.37
2018-06-17T06:01:42.242Z,19.35
2018-06-17T06:02:42.401Z,19.4
2018-06-17T06:03:42.292Z,19.4
2018-06-17T06:04:42.216Z,19.4
2018-06-17T06:05:42.232Z,19.41
2018-06-17T06:06:42.242Z,19.43
2018-06-17T06:07:42.337Z,19.43
2018-06-17T06:08:42.226Z,19.48
2018-06-17T06:09:42.285Z,19.48
2018-06-17T06:10:42.282Z,19.51
2018-06-17T06:11:42.219Z,19.51
2018-06-17T06:12:42.237Z,19.55
2018-06-17T06:13:42.716Z,19.56
2018-06-17T06:14:42.221Z,19.6
2018-06-17T06:15:42.242Z,19.57
2018-06-17T06:16:42.523Z,19.6
2018-06-17T06:17:42.601Z,19.66
2018-06-17T06:18:42.227Z,19.68
2018-06-17T06:19:42.329Z,19.73
2018-06-17T06:20:42.277Z,19.79
2018-06-17T06:21:42.626Z,19.79
2018-06-17T06:22:44.004Z,19.79
2018-06-17T06:23:43.673Z,19.84
2018-06-17T06:24:42.886Z,19.88
2018-06-17T06:25:42.364Z,19.87
2018-06-17T06:26:42.251Z,19.87
2018-06-17T06:27:42.254Z,19.9
2018-06-17T06:28:42.419Z,19.94
2018-06-17T06:29:42.271Z,19.97
2018-06-17T06:30:42.266Z,19.93
2018-06-17T06:31:42.282Z,19.89
2018-06-17T06:32:42.293Z,19.9
2018-06-17T06:33:42.328Z,19.95
2018-06-17T06:34:42.433Z,20
2018-06-17T06:35:42.289Z,20
2018-06-17T06:36:42.270Z,20.02
2018-06-17T06:37:42.282Z,20.02
2018-06-17T06:38:42.295Z,20.01
2018-06-17T06:39:42.246Z,20.02
2018-06-17T06:40:42.307Z,20.04
2018-06-17T06:41:42.330Z,20.07
2018-06-17T06:42:42.337Z,20.07
2018-06-17T06:43:42.289Z,20.09
2018-06-17T06:44:42.290Z,20.02
2018-06-17T06:45:42.958Z,20.02
2018-06-17T06:46:42.274Z,20.04
2018-06-17T06:47:42.307Z,20.1
2018-06-17T06:48:42.279Z,20.07
2018-06-17T06:49:42.275Z,20.13
2018-06-17T06:50:42.281Z,20.15
2018-06-17T06:51:42.289Z,20.17
2018-06-17T06:52:42.295Z,20.19
2018-06-17T06:53:42.426Z,20.13
2018-06-17T06:54:42.279Z,20.16
2018-06-17T06:55:42.355Z,20.15
2018-06-17T06:56:42.332Z,20.2
2018-06-17T06:57:42.310Z,20.21
2018-06-17T06:58:42.423Z,20.2
2018-06-17T06:59:42.312Z,20.18
2018-06-17T07:00:42.345Z,20.23
2018-06-17T07:01:42.342Z,20.27
2018-06-17T07:02:42.341Z,20.26
2018-06-17T07:03:42.354Z,20.28
2018-06-17T07:04:42.347Z,20.28
2018-06-17T07:05:42.563Z,20.27
2018-06-17T07:06:42.295Z,20.28
2018-06-17T07:07:42.912Z,20.34
2018-06-17T07:08:42.377Z,20.36
2018-06-17T07:09:42.452Z,20.41
2018-06-17T07:10:42.356Z,20.43
2018-06-17T07:11:42.305Z,20.39
2018-06-17T07:12:42.447Z,20.36
2018-06-17T07:13:42.306Z,20.37
2018-06-17T07:14:42.491Z,20.32
2018-06-17T07:15:42.948Z,20.32
2018-06-17T07:16:42.834Z,20.34
2018-06-17T07:17:42.333Z,20.34
2018-06-17T07:18:42.354Z,20.39
2018-06-17T07:19:42.362Z,20.36
2018-06-17T07:20:42.384Z,20.36
2018-06-17T07:21:42.347Z,20.4
2018-06-17T07:22:42.352Z,20.41
2018-06-17T07:23:42.396Z,20.42
2018-06-17T07:24:42.321Z,20.41
2018-06-17T07:25:42.321Z,20.4
2018-06-17T07:26:42.345Z,20.4
2018-06-17T07:27:42.322Z,20.4
2018-06-17T07:28:42.330Z,20.37
2018-06-17T07:29:42.564Z,20.42
2018-06-17T07:30:42.305Z,20.41
2018-06-17T07:31:42.584Z,20.43
2018-06-17T07:32:43.044Z,20.47
2018-06-17T07:33:42.361Z,20.48
2018-06-17T07:34:42.338Z,20.54
2018-06-17T07:35:42.414Z,20.59
2018-06-17T07:36:42.348Z,20.59
2018-06-17T07:37:42.396Z,20.63
2018-06-17T07:38:42.478Z,20.64
2018-06-17T07:39:42.556Z,20.66
2018-06-17T07:40:42.469Z,20.66
2018-06-17T07:41:42.354Z,20.67
2018-06-17T07:42:42.324Z,20.72
2018-06-17T07:43:42.755Z,20.74
2018-06-17T07:44:42.386Z,20.72
2018-06-17T07:45:42.354Z,20.69
2018-06-17T07:46:42.339Z,20.71
2018-06-17T07:47:42.474Z,20.71
2018-06-17T07:48:42.383Z,20.73
2018-06-17T07:49:42.418Z,20.79
2018-06-17T07:50:42.381Z,20.83
2018-06-17T07:51:42.438Z,20.87
2018-06-17T07:52:42.379Z,20.87
2018-06-17T07:53:42.394Z,20.93
2018-06-17T07:54:42.426Z,21
2018-06-17T07:55:42.493Z,21.06
2018-06-17T07:56:42.532Z,21.04
2018-06-17T07:57:42.505Z,21.05
2018-06-17T07:58:42.468Z,21.07
2018-06-17T07:59:42.525Z,21.11
2018-06-17T08:00:42.361Z,21.15
2018-06-17T08:01:42.437Z,21.16
2018-06-17T08:02:42.438Z,21.15
2018-06-17T08:03:42.373Z,21.23
2018-06-17T08:04:42.704Z,21.13
2018-06-17T08:05:42.565Z,21.2
2018-06-17T08:06:42.493Z,21.22
2018-06-17T08:07:42.673Z,21.11
2018-06-17T08:08:42.382Z,21.13
2018-06-17T08:09:42.362Z,21.17
2018-06-17T08:10:42.725Z,21.22
2018-06-17T08:11:42.397Z,21.18
2018-06-17T08:12:42.374Z,21.18
2018-06-17T08:13:42.360Z,21.15
2018-06-17T08:14:42.590Z,21.15
2018-06-17T08:15:42.510Z,21.21
2018-06-17T08:16:42.397Z,21.27
2018-06-17T08:17:42.457Z,21.18
2018-06-17T08:18:42.518Z,21.23
2018-06-17T08:19:42.374Z,21.28
2018-06-17T08:20:42.559Z,21.36
2018-06-17T08:21:42.423Z,21.47
2018-06-17T08:22:42.417Z,21.5
2018-06-17T08:23:42.409Z,21.51
2018-06-17T08:24:42.417Z,21.55
2018-06-17T08:25:42.411Z,21.59
2018-06-17T08:26:49.702Z,21.6
2018-06-17T08:27:42.415Z,21.58
2018-06-17T08:28:42.425Z,21.62
2018-06-17T08:29:45.272Z,21.64
2018-06-17T08:30:51.826Z,21.57
2018-06-17T08:31:48.107Z,21.64
2018-06-17T08:32:55.062Z,21.64
2018-06-17T08:33:45.762Z,21.61
2018-06-17T08:34:46.938Z,21.63
2018-06-17T08:35:46.782Z,21.69
2018-06-17T08:36:42.436Z,21.77
2018-06-17T08:37:42.458Z,21.81
2018-06-17T08:38:42.430Z,21.87
2018-06-17T08:39:42.433Z,21.88
2018-06-17T08:40:42.867Z,21.91
2018-06-17T08:41:42.489Z,21.99
2018-06-17T08:42:42.406Z,22.01
2018-06-17T08:43:42.419Z,22.03
2018-06-17T08:44:42.417Z,22.06
2018-06-17T08:45:42.430Z,22.08
2018-06-17T08:46:42.890Z,22.02
2018-06-17T08:47:42.413Z,22.02
2018-06-17T08:48:42.448Z,22.02
2018-06-17T08:49:42.433Z,22.02
2018-06-17T08:50:42.508Z,22.05
2018-06-17T08:51:42.429Z,22.03
2018-06-17T08:52:42.581Z,22.06
2018-06-17T08:53:42.457Z,22.1
2018-06-17T08:54:42.455Z,22.11
2018-06-17T08:55:42.595Z,22.13
2018-06-17T08:56:42.446Z,22.2
2018-06-17T08:57:42.427Z,22.16
2018-06-17T08:58:42.706Z,22.18
2018-06-17T08:59:42.645Z,22.18
2018-06-17T09:00:42.443Z,22.13
2018-06-17T09:01:42.487Z,22.13
2018-06-17T09:02:42.550Z,22.17
2018-06-17T09:03:42.481Z,22.05
2018-06-17T09:04:42.669Z,21.96
2018-06-17T09:05:42.488Z,22
2018-06-17T09:06:42.590Z,21.97
2018-06-17T09:07:42.685Z,21.99
2018-06-17T09:08:42.581Z,22.03
2018-06-17T09:09:42.683Z,22.09
2018-06-17T09:10:42.840Z,22.1
2018-06-17T09:11:42.620Z,22.11
2018-06-17T09:12:42.583Z,22.15
2018-06-17T09:13:42.502Z,22.16
2018-06-17T09:14:42.646Z,22.17
2018-06-17T09:15:42.831Z,22.22
2018-06-17T09:16:42.713Z,22.25
2018-06-17T09:17:42.711Z,22.3
2018-06-17T09:18:42.630Z,22.26
2018-06-17T09:19:42.549Z,22.26
2018-06-17T09:20:42.602Z,22.23
2018-06-17T09:21:42.662Z,22.27
2018-06-17T09:22:42.449Z,22.25
2018-06-17T09:23:42.765Z,22.24
2018-06-17T09:24:42.450Z,22.16
2018-06-17T09:25:42.456Z,22.2
2018-06-17T09:26:42.453Z,22.23
2018-06-17T09:27:42.480Z,22.25
2018-06-17T09:28:42.441Z,22.22
2018-06-17T09:29:42.516Z,22.21
2018-06-17T09:30:42.471Z,22.2
2018-06-17T09:31:42.844Z,22.25
2018-06-17T09:32:42.619Z,22.24
2018-06-17T09:33:42.478Z,22.21
2018-06-17T09:34:42.743Z,22.17
2018-06-17T09:35:42.636Z,22.18
2018-06-17T09:36:42.516Z,22.2
2018-06-17T09:37:42.539Z,22.22
2018-06-17T09:38:42.476Z,22.24
2018-06-17T09:39:42.694Z,22.26
2018-06-17T09:40:42.585Z,22.26
2018-06-17T09:41:42.605Z,22.22
2018-06-17T09:42:42.454Z,22.24
2018-06-17T09:43:42.490Z,22.23
2018-06-17T09:44:42.483Z,22.27
2018-06-17T09:45:42.517Z,22.32
2018-06-17T09:46:42.509Z,22.28
2018-06-17T09:47:42.533Z,22.19
2018-06-17T09:48:42.502Z,22.2
2018-06-17T09:49:42.715Z,22.16
2018-06-17T09:50:42.488Z,22.2
2018-06-17T09:51:42.558Z,22.21
2018-06-17T09:52:42.476Z,22.24
2018-06-17T09:53:42.533Z,22.26
2018-06-17T09:54:42.692Z,22.2
2018-06-17T09:55:42.698Z,22.19
2018-06-17T09:56:42.515Z,22.12
2018-06-17T09:57:42.622Z,22.13
2018-06-17T09:58:42.589Z,22.16
2018-06-17T09:59:42.588Z,22.18
2018-06-17T10:00:42.526Z,22.18
2018-06-17T10:01:42.957Z,22.23
2018-06-17T10:02:42.564Z,22.25
2018-06-17T10:03:42.627Z,22.29
2018-06-17T10:04:42.656Z,22.26
2018-06-17T10:05:42.566Z,22.27
2018-06-17T10:06:42.533Z,22.29
2018-06-17T10:07:42.537Z,22.31
2018-06-17T10:08:42.544Z,22.28
2018-06-17T10:09:42.689Z,22.26
2018-06-17T10:10:42.516Z,22.31
2018-06-17T10:11:42.530Z,22.33
2018-06-17T10:12:42.509Z,22.36
2018-06-17T10:13:42.594Z,22.35
2018-06-17T10:14:42.731Z,22.4
2018-06-17T10:15:42.521Z,22.39
2018-06-17T10:16:42.696Z,22.39
2018-06-17T10:17:42.535Z,22.39
2018-06-17T10:18:42.535Z,22.4
2018-06-17T10:19:42.659Z,22.39
2018-06-17T10:20:42.573Z,22.38
2018-06-17T10:21:42.561Z,22.36
2018-06-17T10:22:42.548Z,22.28
2018-06-17T10:23:42.551Z,22.26
2018-06-17T10:24:42.530Z,22.31
2018-06-17T10:25:42.677Z,22.28
2018-06-17T10:26:42.548Z,22.3
2018-06-17T10:27:42.583Z,22.28
2018-06-17T10:28:42.591Z,22.28
2018-06-17T10:29:42.592Z,22.3
2018-06-17T10:30:42.523Z,22.27
2018-06-17T10:31:42.556Z,22.24
2018-06-17T10:32:42.579Z,22.26
2018-06-17T10:33:42.729Z,22.25
2018-06-17T10:34:42.737Z,22.27
2018-06-17T10:35:42.569Z,22.28
2018-06-17T10:36:42.553Z,22.33
2018-06-17T10:37:42.580Z,22.39
2018-06-17T10:38:42.612Z,22.45
2018-06-17T10:39:42.562Z,22.46
2018-06-17T10:40:42.532Z,22.53
2018-06-17T10:41:42.586Z,22.62
2018-06-17T10:42:42.588Z,22.72
2018-06-17T10:43:42.591Z,22.79
2018-06-17T10:44:42.556Z,22.77
2018-06-17T10:45:42.625Z,22.71
2018-06-17T10:46:42.558Z,22.75
2018-06-17T10:47:42.611Z,22.77
2018-06-17T10:48:42.601Z,22.74
2018-06-17T10:49:42.645Z,22.72
2018-06-17T10:50:42.578Z,22.72
2018-06-17T10:51:42.599Z,22.75
2018-06-17T10:52:42.550Z,22.77
2018-06-17T10:53:42.606Z,22.79
2018-06-17T10:54:42.591Z,22.83
2018-06-17T10:55:44.193Z,22.84
2018-06-17T10:56:42.625Z,22.82
2018-06-17T10:57:42.601Z,22.84
2018-06-17T10:58:42.608Z,22.85
2018-06-17T10:59:42.704Z,22.89
2018-06-17T11:00:42.556Z,22.85
2018-06-17T11:01:42.601Z,22.86
2018-06-17T11:02:42.603Z,22.86
2018-06-17T11:03:42.583Z,22.88
2018-06-17T11:04:42.643Z,22.88
2018-06-17T11:05:43.699Z,22.89
2018-06-17T11:06:42.629Z,22.92
2018-06-17T11:07:42.772Z,22.97
2018-06-17T11:08:42.616Z,22.97
2018-06-17T11:09:43.701Z,23
2018-06-17T11:10:42.777Z,23.05
2018-06-17T11:11:42.599Z,23.1
2018-06-17T11:12:42.666Z,23.13
2018-06-17T11:13:42.715Z,23.12
2018-06-17T11:14:42.711Z,23.17
2018-06-17T11:15:42.639Z,23.19
2018-06-17T11:16:42.589Z,23.22
2018-06-17T11:17:42.622Z,23.19
2018-06-17T11:18:42.581Z,23.19
2018-06-17T11:19:43.088Z,23.2
2018-06-17T11:20:42.609Z,23.18
2018-06-17T11:21:42.703Z,23.21
2018-06-17T11:22:42.611Z,23.2
2018-06-17T11:23:42.666Z,23.23
2018-06-17T11:24:42.787Z,23.22
2018-06-17T11:25:42.905Z,23.15
2018-06-17T11:26:42.844Z,23.12
2018-06-17T11:27:42.758Z,23.09
2018-06-17T11:28:42.753Z,23.09
2018-06-17T11:29:42.764Z,23.1
2018-06-17T11:30:42.737Z,23.14
2018-06-17T11:31:42.883Z,23.11
2018-06-17T11:32:42.911Z,23.09
2018-06-17T11:33:42.789Z,23.09
2018-06-17T11:34:42.811Z,23.06
2018-06-17T11:35:42.910Z,23.04
2018-06-17T11:36:42.845Z,23.08
2018-06-17T11:37:42.776Z,23.08
2018-06-17T11:38:42.784Z,23.09
2018-06-17T11:39:42.750Z,23.12
2018-06-17T11:40:42.888Z,23.13
2018-06-17T11:41:42.738Z,23.15
2018-06-17T11:42:42.621Z,23.16
2018-06-17T11:43:42.637Z,23.17
2018-06-17T11:44:43.710Z,23.22
2018-06-17T11:45:42.848Z,23.21
2018-06-17T11:46:42.779Z,23.2
2018-06-17T11:47:42.658Z,23.14
2018-06-17T11:48:42.741Z,23.11
2018-06-17T11:49:42.836Z,23.12
2018-06-17T11:50:42.673Z,23.06
2018-06-17T11:51:42.847Z,23.08
2018-06-17T11:52:42.656Z,23.05
2018-06-17T11:53:42.702Z,23.09
2018-06-17T11:54:42.812Z,23.11
2018-06-17T11:55:43.133Z,23.1
2018-06-17T11:56:42.864Z,23.11
2018-06-17T11:57:42.805Z,23.11
2018-06-17T11:58:42.827Z,23.09
2018-06-17T11:59:43.327Z,23.11
2018-06-17T12:00:42.828Z,23.16
2018-06-17T12:01:42.814Z,23.18
2018-06-17T12:02:42.647Z,23.2
2018-06-17T12:03:42.670Z,23.25
2018-06-17T12:04:42.651Z,23.24
2018-06-17T12:11:46.963Z,23.26
2018-06-17T12:12:46.892Z,23.28
2018-06-17T12:13:51.212Z,23.23
2018-06-17T12:14:47.553Z,23.23
2018-06-17T12:15:46.937Z,23.27
2018-06-17T12:16:46.864Z,23.27
2018-06-17T12:17:46.870Z,23.32
2018-06-17T12:18:47.004Z,23.33
2018-06-17T12:19:48.042Z,23.36
2018-06-17T12:20:46.851Z,23.36
2018-06-17T12:21:46.862Z,23.41
2018-06-17T12:22:47.044Z,23.42
2018-06-17T12:23:46.869Z,23.42
2018-06-17T12:24:47.064Z,23.42
2018-06-17T12:25:47.169Z,23.42
2018-06-17T12:26:47.034Z,23.45
2018-06-17T12:27:47.027Z,23.46
2018-06-17T12:28:47.035Z,23.42
2018-06-17T12:29:46.836Z,23.38
2018-06-17T12:30:46.821Z,23.33
2018-06-17T12:31:47.005Z,23.37
2018-06-17T12:32:46.988Z,23.33
2018-06-17T12:33:47.254Z,23.33
2018-06-17T12:34:47.028Z,23.35
2018-06-17T12:35:47.068Z,23.36
2018-06-17T12:36:47.214Z,23.35
2018-06-17T12:37:46.983Z,23.35
2018-06-17T12:38:46.921Z,23.3
2018-06-17T12:39:46.847Z,23.24
2018-06-17T12:40:47.205Z,23.26
2018-06-17T12:41:46.903Z,23.28
2018-06-17T12:42:46.882Z,23.25
2018-06-17T12:43:47.151Z,23.27
2018-06-17T12:44:47.068Z,23.27
2018-06-17T12:45:46.873Z,23.23
2018-06-17T12:46:46.970Z,23.23
2018-06-17T12:47:46.924Z,23.12
2018-06-17T12:48:47.168Z,23.09
2018-06-17T12:49:47.163Z,23.11
2018-06-17T12:50:46.845Z,23.12
2018-06-17T12:51:46.817Z,23.13
2018-06-17T12:52:32.849Z,23.16
2018-06-17T12:53:33.059Z,23.15
2018-06-17T12:54:32.958Z,23.16
2018-06-17T12:55:32.833Z,23.15
2018-06-17T12:56:32.976Z,23.15
2018-06-17T12:57:32.791Z,23.16
2018-06-17T12:58:32.959Z,23.15
2018-06-17T12:59:33.010Z,23.1
2018-06-17T13:00:32.798Z,23.11
2018-06-17T13:01:32.787Z,23.1